Terminal Aerodrome Forecast
Issued by NWS Louisville, KY

Home | Current Version | Previous Version | Text Only | Print | Product List | Glossary On
Versions: 1 2 3 4 5 6 7 8 9 10 11 12 13 14
000
FTUS43 KLMK 191743
TAFLEX
TAF
KLEX 191743Z 1918/2018 13008KT P6SM BKN100
     FM192000 12007KT P6SM VCSH BKN040
     FM200000 12008KT 4SM -RA OVC015
     FM200600 13008KT 3SM RA OVC008
     FM201200 19007KT 4SM -SHRA BKN005=

USA.gov is the U.S. government's official web portal to all federal, state and local government web resources and services.